Time;durP1;ratioP1;P1;durP2;ratioP2;P2;SDS_P1;SDS_P2;PMS_P1;PMS_P2;Temp;Humidity;BMP_temperature;BMP_pressure;BME280_temperature;BME280_humidity;BME280_pressure;Samples;Min_cycle;Max_cycle;Signal;HPM_P1;HPM_P2
2021/12/07 00:00:56;;;;;;;;;;;3.10;99.90;;;;;;5119217;28;20378;-71
2021/12/07 00:03:21;;;;;;;;;;;3.10;99.90;;;;;;5132863;28;19912;-70
2021/12/07 00:05:47;;;;;;;;;;;;;;;;;;5113817;28;19916;-75
2021/12/07 00:08:13;;;;;;;;;;;3.20;99.90;;;;;;5127489;28;19968;-69
2021/12/07 00:10:41;;;;;;;;;;;3.30;99.90;;;;;;5133091;28;19908;-70
2021/12/07 00:13:06;;;;;;;;;;;3.30;99.90;;;;;;5108550;28;19908;-70
2021/12/07 00:15:33;;;;;;;;;;;3.30;99.90;;;;;;5102498;28;19919;-70
2021/12/07 00:17:59;;;;;;;;;;;3.40;99.90;;;;;;5132807;28;19908;-70
2021/12/07 00:20:25;;;;;;;;;;;3.50;99.90;;;;;;5132432;27;19911;-70
2021/12/07 00:22:51;;;;;;;;;;;3.50;99.90;;;;;;5121017;27;19919;-71
2021/12/07 00:25:17;;;;;;;;;;;3.50;99.90;;;;;;5116246;28;19930;-70
2021/12/07 00:27:42;;;;;;;;;;;3.50;99.90;;;;;;5129119;27;20355;-70
2021/12/07 00:30:11;;;;;;;;;;;3.60;99.90;;;;;;5112939;27;20379;-70
2021/12/07 00:32:42;;;;;;;;;;;3.50;99.90;;;;;;5112870;28;19965;-69
2021/12/07 00:37:40;;;;;;;;;;;3.60;99.90;;;;;;5099966;28;19962;-70
2021/12/07 00:40:08;;;;;;;;;;;3.60;99.90;;;;;;5095866;28;19920;-70
2021/12/07 00:42:34;;;;;;;;;;;3.60;99.90;;;;;;5094658;28;19908;-70
2021/12/07 00:45:00;;;;;;;;;;;3.70;99.90;;;;;;5097425;28;19972;-70
2021/12/07 00:47:26;;;;;;;;;;;3.80;99.90;;;;;;5115765;28;20279;-70
2021/12/07 00:49:51;;;;;;;;;;;3.80;99.90;;;;;;5114740;28;19919;-70
2021/12/07 00:52:17;;;;;;;;;;;3.80;99.90;;;;;;5105198;28;19918;-70
2021/12/07 00:54:42;;;;;;;;;;;3.80;99.90;;;;;;5109927;28;19916;-69
2021/12/07 00:57:08;;;;;;;;;;;3.90;99.90;;;;;;5109421;28;19919;-69
2021/12/07 00:59:34;;;;;;;;;;;;;;;;;;5113067;28;20295;-71
2021/12/07 01:01:59;;;;;;;;;;;4.00;99.90;;;;;;5103067;28;19912;-69
2021/12/07 01:04:26;;;;;;;;;;;4.00;99.90;;;;;;5098346;28;19913;-69
2021/12/07 01:09:30;;;;;;;;;;;4.00;99.90;;;;;;5096200;28;20029;-69
2021/12/07 01:25:40;;;;;;;;;;;4.00;99.90;;;;;;5114586;28;19931;-70
2021/12/07 01:28:17;;;;;;;;;;;4.00;99.90;;;;;;5094217;28;20344;-70
2021/12/07 01:30:54;;;;;;;;;;;4.10;99.90;;;;;;5093695;28;19957;-69
2021/12/07 01:59:55;;;;;;;;;;;4.20;99.90;;;;;;5108944;28;20375;-70
2021/12/07 02:02:22;;;;;;;;;;;4.20;99.90;;;;;;5099999;28;19912;-70
2021/12/07 02:04:48;;;;;;;;;;;4.20;99.90;;;;;;5096570;28;19926;-69
2021/12/07 02:07:13;;;;;;;;;;;4.30;99.90;;;;;;5112482;28;19907;-69
2021/12/07 02:09:42;;;;;;;;;;;4.30;99.90;;;;;;5104429;28;19912;-69
2021/12/07 02:12:08;;;;;;;;;;;4.40;99.90;;;;;;5092116;28;19981;-70
2021/12/07 02:14:34;;;;;;;;;;;4.40;99.90;;;;;;5098399;28;19920;-70
2021/12/07 02:17:02;;;;;;;;;;;4.40;99.90;;;;;;5113885;28;19957;-70
2021/12/07 02:19:28;;;;;;;;;;;4.50;99.90;;;;;;5109552;28;19916;-69
2021/12/07 02:21:54;;;;;;;;;;;;;;;;;;5094949;28;19916;-74
2021/12/07 02:24:20;;;;;;;;;;;4.50;99.90;;;;;;5114045;28;20352;-69
2021/12/07 02:26:47;;;;;;;;;;;4.40;99.90;;;;;;5112177;28;20002;-70
2021/12/07 02:29:13;;;;;;;;;;;4.40;99.90;;;;;;5092836;28;19916;-70
2021/12/07 02:31:38;;;;;;;;;;;4.50;99.90;;;;;;5111553;28;19912;-69
2021/12/07 02:34:04;;;;;;;;;;;4.40;99.90;;;;;;5112932;27;19911;-70
2021/12/07 02:36:30;;;;;;;;;;;4.40;99.90;;;;;;5129209;27;19968;-69
2021/12/07 02:38:56;;;;;;;;;;;;;;;;;;5133975;27;19908;-75
2021/12/07 02:41:21;;;;;;;;;;;4.50;99.90;;;;;;5117604;27;19907;-69
2021/12/07 02:43:47;;;;;;;;;;;4.50;99.90;;;;;;5113151;28;20255;-69
2021/12/07 02:46:12;;;;;;;;;;;4.50;99.90;;;;;;5112458;28;19916;-70
2021/12/07 02:48:38;;;;;;;;;;;4.50;99.90;;;;;;5095723;28;19964;-70
2021/12/07 02:51:04;;;;;;;;;;;4.40;99.90;;;;;;5113975;28;19964;-69
2021/12/07 02:53:30;;;;;;;;;;;4.40;99.90;;;;;;5095465;28;19907;-69
2021/12/07 02:55:56;;;;;;;;;;;;;;;;;;5098065;28;19922;-76
2021/12/07 02:58:21;;;;;;;;;;;4.50;99.90;;;;;;5113134;28;20010;-70
2021/12/07 03:00:56;;;;;;;;;;;4.50;99.90;;;;;;5113250;28;20271;-70
2021/12/07 03:03:22;;;;;;;;;;;4.50;99.90;;;;;;5113693;28;19968;-69
2021/12/07 03:05:59;;;;;;;;;;;4.50;99.90;;;;;;5094926;28;20018;-69
2021/12/07 03:27:15;;;;;;;;;;;4.20;99.90;;;;;;5133064;27;20362;-70
2021/12/07 03:29:40;;;;;;;;;;;4.20;99.90;;;;;;5110912;27;19908;-70
2021/12/07 03:32:06;;;;;;;;;;;;;;;;;;5132487;27;19908;-69
2021/12/07 03:34:32;;;;;;;;;;;4.30;99.90;;;;;;5110966;28;20408;-69
2021/12/07 03:36:57;;;;;;;;;;;;;;;;;;5112916;28;20010;-75
2021/12/07 03:39:23;;;;;;;;;;;4.30;99.90;;;;;;5092078;28;19999;-70
2021/12/07 03:41:48;;;;;;;;;;;4.30;99.90;;;;;;5091359;28;19978;-69
2021/12/07 03:44:14;;;;;;;;;;;4.30;99.90;;;;;;5092238;28;19908;-70
2021/12/07 03:46:40;;;;;;;;;;;4.30;99.90;;;;;;5110025;28;20287;-70
2021/12/07 03:49:05;;;;;;;;;;;4.20;99.90;;;;;;5111713;28;19911;-71
2021/12/07 03:51:31;;;;;;;;;;;4.20;99.90;;;;;;5091050;28;19944;-70
2021/12/07 03:53:57;;;;;;;;;;;;;;;;;;5092560;28;19908;-69
2021/12/07 03:56:22;;;;;;;;;;;4.20;99.90;;;;;;5092989;28;19916;-70
2021/12/07 03:58:48;;;;;;;;;;;4.30;99.90;;;;;;5095536;28;19912;-69
2021/12/07 04:01:14;;;;;;;;;;;4.20;99.90;;;;;;5091459;28;19912;-70
2021/12/07 04:03:41;;;;;;;;;;;4.20;99.90;;;;;;5096833;28;19999;-70
2021/12/07 04:06:07;;;;;;;;;;;4.20;99.90;;;;;;5109880;28;19916;-70
2021/12/07 04:08:34;;;;;;;;;;;4.20;99.90;;;;;;5115579;28;19930;-70
2021/12/07 04:11:00;;;;;;;;;;;;;;;;;;5098037;28;19916;-75
2021/12/07 04:13:25;;;;;;;;;;;4.30;99.90;;;;;;5094770;28;20254;-70
2021/12/07 04:15:51;;;;;;;;;;;4.20;99.90;;;;;;5107121;28;19911;-70
2021/12/07 04:18:17;;;;;;;;;;;4.30;99.90;;;;;;5115714;28;19972;-69
2021/12/07 04:20:43;;;;;;;;;;;4.20;99.90;;;;;;5101919;28;19912;-70
2021/12/07 04:23:09;;;;;;;;;;;4.20;99.90;;;;;;5094175;28;19912;-70
2021/12/07 04:25:34;;;;;;;;;;;4.30;99.90;;;;;;5095903;28;20322;-70
2021/12/07 04:28:00;;;;;;;;;;;;;;;;;;5096195;28;19912;-76
2021/12/07 04:30:27;;;;;;;;;;;4.30;99.90;;;;;;5096690;28;20364;-69
2021/12/07 04:32:53;;;;;;;;;;;4.30;99.90;;;;;;5096044;28;19909;-70
2021/12/07 04:35:19;;;;;;;;;;;4.30;99.90;;;;;;5106468;28;20261;-70
2021/12/07 04:37:44;;;;;;;;;;;4.40;99.90;;;;;;5115895;28;19919;-69
2021/12/07 04:40:12;;;;;;;;;;;4.30;99.90;;;;;;5116045;27;20374;-69
2021/12/07 04:42:38;;;;;;;;;;;4.20;99.90;;;;;;5116307;28;19915;-70
2021/12/07 04:45:06;;;;;;;;;;;;;;;;;;5115864;27;19912;-75
2021/12/07 04:47:58;;;;;;;;;;;4.30;99.90;;;;;;5115980;28;19908;-70
2021/12/07 04:58:21;;;;;;;;;;;4.40;99.90;;;;;;5115122;28;19923;-70
2021/12/07 05:00:47;;;;;;;;;;;4.40;99.90;;;;;;5120958;27;19908;-69
2021/12/07 05:03:14;;;;;;;;;;;4.40;99.90;;;;;;5128671;27;20367;-70
2021/12/07 05:05:46;;;;;;;;;;;4.30;99.90;;;;;;5116029;28;20374;-69
2021/12/07 05:08:15;;;;;;;;;;;4.30;99.90;;;;;;5114470;27;19915;-69
2021/12/07 05:18:38;;;;;;;;;;;4.20;99.90;;;;;;5120760;27;19971;-69
2021/12/07 05:24:05;;;;;;;;;;;4.10;99.90;;;;;;5135938;27;20275;-69
2021/12/07 05:39:54;;;;;;;;;;;3.90;99.90;;;;;;5132039;27;19944;-70
2021/12/07 05:42:22;;;;;;;;;;;3.80;99.90;;;;;;5114082;28;19908;-70
2021/12/07 05:44:48;;;;;;;;;;;3.80;99.90;;;;;;5116118;27;19916;-69
2021/12/07 05:47:14;;;;;;;;;;;3.70;99.90;;;;;;5131506;27;19912;-70
2021/12/07 05:49:39;;;;;;;;;;;3.80;99.90;;;;;;5133525;27;19964;-69
2021/12/07 05:52:05;;;;;;;;;;;;;;;;;;5134806;27;19964;-76
2021/12/07 05:54:31;;;;;;;;;;;3.70;99.90;;;;;;5134936;27;20374;-67
2021/12/07 05:56:56;;;;;;;;;;;3.70;99.90;;;;;;5109933;28;20325;-68
2021/12/07 05:59:22;;;;;;;;;;;;;;;;;;5113547;28;19912;-71
2021/12/07 06:01:47;;;;;;;;;;;3.70;99.90;;;;;;5134297;27;20278;-68
2021/12/07 06:04:13;;;;;;;;;;;3.70;99.90;;;;;;5134048;27;19911;-69
2021/12/07 06:06:39;;;;;;;;;;;3.70;99.90;;;;;;5097977;28;19916;-69
2021/12/07 06:09:05;;;;;;;;;;;;;;;;;;5109295;28;19916;-74
2021/12/07 06:11:31;;;;;;;;;;;3.50;99.90;;;;;;5113690;28;19931;-68
2021/12/07 06:13:56;;;;;;;;;;;3.60;99.90;;;;;;5096149;28;19908;-68
2021/12/07 06:16:24;;;;;;;;;;;3.60;99.90;;;;;;5095179;28;19999;-68
2021/12/07 06:18:49;;;;;;;;;;;3.60;99.90;;;;;;5113685;28;19908;-65
2021/12/07 06:21:15;;;;;;;;;;;3.60;99.90;;;;;;5114407;27;19919;-67
2021/12/07 06:23:41;;;;;;;;;;;3.70;99.90;;;;;;5096449;28;19908;-67
2021/12/07 06:26:07;;;;;;;;;;;;;;;;;;5095714;28;19950;-75
2021/12/07 06:28:33;;;;;;;;;;;3.60;99.90;;;;;;5113698;28;20332;-68
2021/12/07 06:30:58;;;;;;;;;;;3.60;99.90;;;;;;5114087;27;19908;-67
2021/12/07 06:33:24;;;;;;;;;;;;;;;;;;5103982;27;19911;-68
2021/12/07 06:35:51;;;;;;;;;;;3.50;99.90;;;;;;5134231;27;19927;-67
2021/12/07 06:38:22;;;;;;;;;;;3.60;99.90;;;;;;5132281;27;19919;-70
2021/12/07 06:40:47;;;;;;;;;;;3.50;99.90;;;;;;5113512;27;19915;-69
2021/12/07 06:43:13;;;;;;;;;;;3.50;99.90;;;;;;5115275;27;19998;-68
2021/12/07 06:45:38;;;;;;;;;;;3.50;99.90;;;;;;5133827;27;20373;-67
2021/12/07 06:48:04;;;;;;;;;;;3.50;99.90;;;;;;5134152;27;19913;-68
2021/12/07 06:50:30;;;;;;;;;;;3.40;99.90;;;;;;5106813;27;19903;-67
2021/12/07 06:52:55;;;;;;;;;;;3.50;99.90;;;;;;5108565;27;20382;-68
2021/12/07 06:55:21;;;;;;;;;;;3.40;99.90;;;;;;5098110;28;19912;-69
2021/12/07 06:57:47;;;;;;;;;;;3.40;99.90;;;;;;5095500;28;20366;-69
2021/12/07 07:00:13;;;;;;;;;;;;;;;;;;5113383;27;20419;-74
2021/12/07 07:02:38;;;;;;;;;;;3.40;99.90;;;;;;5113245;28;19916;-69
2021/12/07 07:05:04;;;;;;;;;;;3.40;99.90;;;;;;5118939;27;19951;-67
2021/12/07 07:07:32;;;;;;;;;;;3.40;99.90;;;;;;5125398;27;19911;-68
2021/12/07 07:09:58;;;;;;;;;;;3.30;99.90;;;;;;5134058;27;20016;-68
2021/12/07 07:12:23;;;;;;;;;;;3.30;99.90;;;;;;5111938;28;19915;-68
2021/12/07 07:14:49;;;;;;;;;;;3.20;99.90;;;;;;5111781;28;19922;-69
2021/12/07 07:17:15;;;;;;;;;;;3.30;99.90;;;;;;5105655;27;19916;-69
2021/12/07 07:19:41;;;;;;;;;;;3.30;99.90;;;;;;5117625;27;19954;-67
2021/12/07 07:22:06;;;;;;;;;;;3.30;99.90;;;;;;5113028;28;19958;-68
2021/12/07 07:24:33;;;;;;;;;;;3.30;99.90;;;;;;5112465;27;20015;-68
2021/12/07 07:26:59;;;;;;;;;;;3.30;99.90;;;;;;5094642;28;19911;-69
2021/12/07 07:29:25;;;;;;;;;;;;;;;;;;5111814;28;19957;-69
2021/12/07 07:31:51;;;;;;;;;;;3.30;99.90;;;;;;5113253;28;19915;-69
2021/12/07 07:34:16;;;;;;;;;;;3.20;99.90;;;;;;5111897;28;19911;-69
2021/12/07 07:36:42;;;;;;;;;;;3.30;99.90;;;;;;5095650;28;19916;-69
2021/12/07 07:39:07;;;;;;;;;;;3.30;99.90;;;;;;5096825;28;20374;-69
2021/12/07 07:41:33;;;;;;;;;;;3.30;99.90;;;;;;5112278;28;19994;-69
2021/12/07 07:43:59;;;;;;;;;;;3.30;99.90;;;;;;5112259;28;19922;-69
2021/12/07 07:46:26;;;;;;;;;;;3.30;99.90;;;;;;5111694;28;20026;-69
2021/12/07 07:48:52;;;;;;;;;;;3.30;99.90;;;;;;5093747;28;19908;-69
2021/12/07 07:51:17;;;;;;;;;;;3.40;99.90;;;;;;5095173;28;20382;-69
2021/12/07 07:53:43;;;;;;;;;;;3.40;99.90;;;;;;5115365;28;19920;-69
2021/12/07 07:56:09;;;;;;;;;;;3.30;99.90;;;;;;5123918;28;19923;-69
2021/12/07 07:58:34;;;;;;;;;;;;;;;;;;5111698;28;19911;-69
2021/12/07 08:01:00;;;;;;;;;;;3.20;99.90;;;;;;5112070;28;19908;-69
2021/12/07 08:03:26;;;;;;;;;;;;;;;;;;5111619;28;19920;-70
2021/12/07 08:05:52;;;;;;;;;;;3.30;99.90;;;;;;5094350;28;20003;-69
2021/12/07 08:08:19;;;;;;;;;;;3.30;99.90;;;;;;5111611;28;19919;-70
2021/12/07 08:10:45;;;;;;;;;;;3.20;99.90;;;;;;5112418;28;19912;-69
2021/12/07 08:13:11;;;;;;;;;;;3.30;99.90;;;;;;5093051;28;20002;-70
2021/12/07 08:15:40;;;;;;;;;;;3.30;99.90;;;;;;5123504;28;20354;-71
2021/12/07 08:18:06;;;;;;;;;;;3.70;99.90;;;;;;5116619;28;19934;-69
2021/12/07 08:20:32;;;;;;;;;;;4.00;99.90;;;;;;5109745;28;20644;-70
2021/12/07 08:22:58;;;;;;;;;;;4.40;99.90;;;;;;5133325;28;20374;-69
2021/12/07 08:25:23;;;;;;;;;;;4.30;99.90;;;;;;5123382;28;19919;-72
2021/12/07 08:27:49;;;;;;;;;;;4.60;99.90;;;;;;5112641;28;19908;-70
2021/12/07 08:30:15;;;;;;;;;;;;;;;;;;5093782;28;20359;-74
2021/12/07 08:32:45;;;;;;;;;;;4.70;99.90;;;;;;5112159;28;20343;-67
2021/12/07 08:35:14;;;;;;;;;;;4.50;99.90;;;;;;5089958;28;20037;-66
2021/12/07 08:37:40;;;;;;;;;;;;;;;;;;5090091;28;19916;-73
2021/12/07 08:40:09;;;;;;;;;;;4.20;99.90;;;;;;5091879;28;19919;-66
2021/12/07 08:42:35;;;;;;;;;;;;;;;;;;5073369;28;19923;-70
2021/12/07 08:45:01;;;;;;;;;;;4.00;99.90;;;;;;5094169;28;19912;-68
2021/12/07 08:47:26;;;;;;;;;;;4.00;99.90;;;;;;5092765;28;19912;-68
2021/12/07 08:49:54;;;;;;;;;;;4.00;99.90;;;;;;5094166;28;19912;-68
2021/12/07 08:52:20;;;;;;;;;;;3.80;99.90;;;;;;5092424;28;19944;-68
2021/12/07 08:59:56;;;;;;;;;;;;;;;;;;5094920;28;20001;-66
2021/12/07 09:02:23;;;;;;;;;;;3.90;99.90;;;;;;5093335;28;20376;-67
2021/12/07 09:04:49;;;;;;;;;;;3.90;99.90;;;;;;5094101;28;19920;-68
2021/12/07 09:07:15;;;;;;;;;;;;;;;;;;5093605;28;19927;-72
2021/12/07 09:09:43;;;;;;;;;;;4.00;99.90;;;;;;5093055;28;19908;-67
2021/12/07 09:12:09;;;;;;;;;;;;;;;;;;5093967;28;19924;-69
2021/12/07 09:14:34;;;;;;;;;;;4.00;99.90;;;;;;5093018;28;20420;-67
2021/12/07 09:17:00;;;;;;;;;;;;;;;;;;5092274;28;19912;-67
2021/12/07 09:19:26;;;;;;;;;;;4.00;99.90;;;;;;5093657;28;20310;-66
2021/12/07 09:21:52;;;;;;;;;;;4.00;99.90;;;;;;5092421;28;19908;-66
2021/12/07 09:24:18;;;;;;;;;;;;;;;;;;5091809;28;19973;-72
2021/12/07 09:26:43;;;;;;;;;;;4.20;99.90;;;;;;5093233;28;19912;-66
2021/12/07 09:29:09;;;;;;;;;;;4.10;99.90;;;;;;5094115;28;19912;-66
2021/12/07 09:31:35;;;;;;;;;;;;;;;;;;5093123;28;20466;-69
2021/12/07 09:34:00;;;;;;;;;;;4.30;99.90;;;;;;5091702;28;20003;-66
2021/12/07 09:36:26;;;;;;;;;;;4.30;99.90;;;;;;5112998;27;19976;-67
2021/12/07 09:38:52;;;;;;;;;;;4.20;99.90;;;;;;5097147;28;19935;-66
2021/12/07 09:41:18;;;;;;;;;;;4.30;99.90;;;;;;5130200;27;19951;-68
2021/12/07 09:43:45;;;;;;;;;;;4.30;99.90;;;;;;5118530;27;20370;-67
2021/12/07 09:46:11;;;;;;;;;;;4.40;99.90;;;;;;5114844;28;20265;-67
2021/12/07 09:48:36;;;;;;;;;;;4.30;99.90;;;;;;5114092;28;20666;-67
2021/12/07 09:51:03;;;;;;;;;;;4.30;99.90;;;;;;5096956;28;19947;-66
2021/12/07 09:53:29;;;;;;;;;;;4.30;99.90;;;;;;5113819;28;19919;-67
2021/12/07 09:55:55;;;;;;;;;;;4.50;99.90;;;;;;5114258;28;19919;-67
2021/12/07 09:58:22;;;;;;;;;;;4.40;99.90;;;;;;5100290;28;19916;-67
2021/12/07 10:00:47;;;;;;;;;;;4.50;99.90;;;;;;5114141;28;19970;-67
2021/12/07 10:03:15;;;;;;;;;;;4.50;99.90;;;;;;5113218;28;20022;-67
2021/12/07 10:05:41;;;;;;;;;;;;;;;;;;5113086;27;19922;-68
2021/12/07 10:08:07;;;;;;;;;;;;;;;;;;5113430;28;20267;-66
2021/12/07 10:10:41;;;;;;;;;;;4.60;99.90;;;;;;5112410;27;19912;-67
2021/12/07 10:13:07;;;;;;;;;;;4.50;99.90;;;;;;5114139;27;20034;-67
2021/12/07 10:15:33;;;;;;;;;;;4.60;99.90;;;;;;5111856;27;20382;-67
2021/12/07 10:17:59;;;;;;;;;;;;;;;;;;5113101;28;19916;-68
2021/12/07 10:20:39;;;;;;;;;;;4.80;99.90;;;;;;5111871;27;20366;-67
2021/12/07 10:23:20;;;;;;;;;;;4.80;99.90;;;;;;5093310;28;20317;-67
2021/12/07 10:25:47;;;;;;;;;;;;;;;;;;5112497;27;19918;-68
2021/12/07 10:28:30;;;;;;;;;;;5.00;99.90;;;;;;5112739;28;19911;-67
2021/12/07 10:31:13;;;;;;;;;;;5.00;99.90;;;;;;5112002;28;20006;-67
2021/12/07 10:33:41;;;;;;;;;;;5.20;99.90;;;;;;5093100;28;19915;-67
2021/12/07 10:36:18;;;;;;;;;;;5.30;99.90;;;;;;5094656;28;20287;-66
2021/12/07 10:39:09;;;;;;;;;;;5.40;99.90;;;;;;5114545;27;19911;-67
2021/12/07 10:41:40;;;;;;;;;;;5.50;99.90;;;;;;5090903;28;19915;-67
2021/12/07 10:44:09;;;;;;;;;;;5.40;99.90;;;;;;5113673;27;19980;-67
2021/12/07 10:46:36;;;;;;;;;;;5.50;99.90;;;;;;5094463;28;19908;-67
2021/12/07 10:49:02;;;;;;;;;;;;;;;;;;5094551;28;19919;-67
2021/12/07 10:51:28;;;;;;;;;;;;;;;;;;5096621;28;19908;-67
2021/12/07 10:53:53;;;;;;;;;;;5.60;99.90;;;;;;5112891;27;19912;-66
2021/12/07 10:56:19;;;;;;;;;;;;;;;;;;5125249;27;19924;-70
2021/12/07 10:58:57;;;;;;;;;;;5.70;99.90;;;;;;5113127;28;19919;-67
2021/12/07 11:01:40;;;;;;;;;;;5.70;99.90;;;;;;5112565;28;19908;-67
2021/12/07 11:04:24;;;;;;;;;;;5.70;99.90;;;;;;5113103;28;19947;-67
2021/12/07 11:07:08;;;;;;;;;;;5.70;99.90;;;;;;5113357;28;19920;-66
2021/12/07 11:12:42;;;;;;;;;;;5.80;99.90;;;;;;5111046;28;20041;-67
2021/12/07 11:15:15;;;;;;;;;;;6.00;99.90;;;;;;5124024;27;19963;-67
2021/12/07 11:17:41;;;;;;;;;;;6.00;99.90;;;;;;5133056;27;19918;-67
2021/12/07 11:20:07;;;;;;;;;;;6.00;99.90;;;;;;5110751;27;19912;-66
2021/12/07 11:22:35;;;;;;;;;;;6.10;99.90;;;;;;5113497;27;19908;-67
2021/12/07 11:25:03;;;;;;;;;;;6.10;99.90;;;;;;5132875;27;19963;-66
2021/12/07 11:30:21;;;;;;;;;;;6.10;99.90;;;;;;5133158;27;19914;-67
2021/12/07 11:32:51;;;;;;;;;;;6.10;99.90;;;;;;5105808;28;19911;-68
2021/12/07 11:35:35;;;;;;;;;;;6.00;99.90;;;;;;5126459;27;19919;-67
2021/12/07 11:38:04;;;;;;;;;;;5.90;99.70;;;;;;5120189;28;19916;-71
2021/12/07 11:40:38;;;;;;;;;;;6.00;98.90;;;;;;5120590;28;20451;-69
2021/12/07 11:43:17;;;;;;;;;;;6.10;99.40;;;;;;5133939;28;19915;-69
2021/12/07 11:45:43;;;;;;;;;;;6.20;99.30;;;;;;5113174;28;19919;-70
2021/12/07 11:48:09;;;;;;;;;;;6.30;98.40;;;;;;5101487;28;19938;-71
2021/12/07 11:51:01;;;;;;;;;;;6.40;98.90;;;;;;5112696;28;19912;-68
2021/12/07 11:53:28;;;;;;;;;;;6.40;97.30;;;;;;5105634;28;19908;-70
2021/12/07 11:55:57;;;;;;;;;;;6.40;96.30;;;;;;5113933;28;20071;-70
2021/12/07 11:58:23;;;;;;;;;;;;;;;;;;5111037;28;20256;-77
2021/12/07 12:00:49;;;;;;;;;;;6.40;96.40;;;;;;5092179;28;19919;-68
2021/12/07 12:03:16;;;;;;;;;;;6.60;97.30;;;;;;5112408;28;20003;-68
2021/12/07 12:05:43;;;;;;;;;;;6.50;96.70;;;;;;5103629;28;19912;-70
2021/12/07 12:08:09;;;;;;;;;;;6.50;97.20;;;;;;5133092;28;20374;-70
2021/12/07 12:10:36;;;;;;;;;;;6.60;98.10;;;;;;5124262;28;19976;-68
2021/12/07 12:13:02;;;;;;;;;;;6.50;97.00;;;;;;5112599;28;19998;-66
2021/12/07 12:15:46;;;;;;;;;;;6.50;96.20;;;;;;5111268;28;20432;-70
2021/12/07 12:18:22;;;;;;;;;;;6.40;94.40;;;;;;5114667;28;19965;-70
2021/12/07 12:20:58;;;;;;;;;;;6.40;93.90;;;;;;5098974;28;19912;-70
2021/12/07 12:23:33;;;;;;;;;;;6.30;93.10;;;;;;5116106;28;19909;-68
2021/12/07 12:25:59;;;;;;;;;;;6.40;93.60;;;;;;5133448;27;19919;-68
2021/12/07 12:28:25;;;;;;;;;;;6.40;94.10;;;;;;5127785;27;19918;-69
2021/12/07 12:30:51;;;;;;;;;;;6.50;93.80;;;;;;5115771;28;19961;-68
2021/12/07 12:33:17;;;;;;;;;;;6.50;92.00;;;;;;5116307;27;19912;-69
2021/12/07 12:35:47;;;;;;;;;;;6.40;91.30;;;;;;5125422;27;20477;-71
2021/12/07 12:38:21;;;;;;;;;;;6.30;90.30;;;;;;5104389;28;20393;-68
2021/12/07 12:40:57;;;;;;;;;;;6.20;91.10;;;;;;5096917;28;19908;-68
2021/12/07 12:43:39;;;;;;;;;;;6.30;91.70;;;;;;5115336;28;19907;-68
2021/12/07 12:46:05;;;;;;;;;;;;;;;;;;5115415;28;19919;-68
2021/12/07 12:48:32;;;;;;;;;;;6.20;92.10;;;;;;5112175;28;19908;-68
2021/12/07 12:50:58;;;;;;;;;;;6.20;92.50;;;;;;5099093;27;19951;-68
2021/12/07 12:53:25;;;;;;;;;;;6.20;93.00;;;;;;5115036;28;19947;-68
2021/12/07 12:55:52;;;;;;;;;;;6.30;92.90;;;;;;5112874;28;20252;-68
2021/12/07 12:58:18;;;;;;;;;;;;;;;;;;5112191;27;19922;-69
2021/12/07 13:00:57;;;;;;;;;;;6.30;92.80;;;;;;5120799;27;19916;-68
2021/12/07 13:03:23;;;;;;;;;;;;;;;;;;5114902;28;19914;-74
2021/12/07 13:06:02;;;;;;;;;;;6.10;92.10;;;;;;5115502;27;19915;-68
2021/12/07 13:08:27;;;;;;;;;;;6.10;92.60;;;;;;5114899;28;20271;-68
2021/12/07 13:11:03;;;;;;;;;;;6.20;92.60;;;;;;5118258;27;19920;-68
2021/12/07 13:13:34;;;;;;;;;;;6.20;92.90;;;;;;5114108;27;19911;-68
2021/12/07 13:16:11;;;;;;;;;;;6.10;92.00;;;;;;5117541;27;20328;-68
2021/12/07 13:18:37;;;;;;;;;;;;;;;;;;5113885;28;19916;-68
2021/12/07 13:21:16;;;;;;;;;;;6.00;91.20;;;;;;5115217;27;19918;-67
2021/12/07 13:23:56;;;;;;;;;;;6.00;92.30;;;;;;5096466;28;19903;-67
2021/12/07 13:26:24;;;;;;;;;;;;;;;;;;5114884;27;19970;-73
2021/12/07 13:29:00;;;;;;;;;;;5.80;92.20;;;;;;5130875;27;20001;-67
2021/12/07 13:31:34;;;;;;;;;;;5.90;92.30;;;;;;5116467;27;19911;-67
2021/12/07 13:34:01;;;;;;;;;;;5.80;93.90;;;;;;5115742;27;19912;-67
2021/12/07 13:36:37;;;;;;;;;;;5.70;94.30;;;;;;5135016;27;19924;-67
2021/12/07 13:39:20;;;;;;;;;;;5.60;95.30;;;;;;5134536;27;20383;-67
2021/12/07 13:42:05;;;;;;;;;;;5.50;95.10;;;;;;5096037;28;19997;-66
2021/12/07 13:44:32;;;;;;;;;;;5.50;96.10;;;;;;5114670;27;19920;-67
2021/12/07 13:47:03;;;;;;;;;;;5.40;95.30;;;;;;5115071;28;19915;-67
2021/12/07 13:49:29;;;;;;;;;;;;;;;;;;5096922;27;19911;-67
2021/12/07 13:51:54;;;;;;;;;;;5.40;95.50;;;;;;5096545;28;19908;-67
2021/12/07 13:54:21;;;;;;;;;;;5.30;95.70;;;;;;5114835;28;19908;-66
2021/12/07 13:56:48;;;;;;;;;;;5.30;96.90;;;;;;5114153;28;19911;-66
2021/12/07 13:59:18;;;;;;;;;;;5.30;97.70;;;;;;5130191;27;19994;-66
2021/12/07 14:01:50;;;;;;;;;;;5.30;96.90;;;;;;5117536;27;20063;-66
2021/12/07 14:04:16;;;;;;;;;;;5.20;98.40;;;;;;5117082;27;19919;-67
2021/12/07 14:06:45;;;;;;;;;;;5.10;99.00;;;;;;5117018;27;19916;-67
2021/12/07 14:09:11;;;;;;;;;;;5.10;99.90;;;;;;5122610;27;19912;-67
2021/12/07 14:11:37;;;;;;;;;;;5.10;99.90;;;;;;5134846;27;19915;-67
2021/12/07 14:14:06;;;;;;;;;;;5.10;99.90;;;;;;5134851;27;19915;-67
2021/12/07 14:16:32;;;;;;;;;;;5.00;99.90;;;;;;5134617;27;19916;-67
2021/12/07 14:18:57;;;;;;;;;;;5.00;99.90;;;;;;5132565;27;20363;-66
2021/12/07 14:21:23;;;;;;;;;;;;;;;;;;5114043;28;19911;-72
2021/12/07 14:23:52;;;;;;;;;;;5.00;99.90;;;;;;5114609;27;19915;-67
2021/12/07 14:26:19;;;;;;;;;;;4.90;99.90;;;;;;5114635;28;19915;-67
2021/12/07 14:28:46;;;;;;;;;;;4.90;99.90;;;;;;5113573;27;20268;-67
2021/12/07 14:31:13;;;;;;;;;;;4.90;99.90;;;;;;5096092;27;19927;-67
2021/12/07 14:33:44;;;;;;;;;;;4.90;99.90;;;;;;5113533;28;20371;-67
2021/12/07 14:36:10;;;;;;;;;;;4.80;99.90;;;;;;5133519;27;20011;-67
2021/12/07 14:38:36;;;;;;;;;;;4.70;99.90;;;;;;5134414;27;19913;-67
2021/12/07 14:41:03;;;;;;;;;;;4.70;99.90;;;;;;5132464;27;19911;-68
2021/12/07 14:43:28;;;;;;;;;;;4.70;99.90;;;;;;5134187;27;20257;-67
2021/12/07 14:45:57;;;;;;;;;;;4.60;99.90;;;;;;5134820;27;19998;-67
2021/12/07 14:48:23;;;;;;;;;;;4.60;99.90;;;;;;5134088;27;19914;-67
2021/12/07 14:50:48;;;;;;;;;;;4.50;99.90;;;;;;5131626;27;19915;-67
2021/12/07 14:53:14;;;;;;;;;;;4.50;99.90;;;;;;5134657;27;19960;-68
2021/12/07 14:55:39;;;;;;;;;;;4.50;99.90;;;;;;5133009;27;20015;-68
2021/12/07 14:58:05;;;;;;;;;;;4.40;99.90;;;;;;5116202;27;19908;-67
2021/12/07 15:00:31;;;;;;;;;;;4.40;99.90;;;;;;5096926;28;20283;-67
2021/12/07 15:02:56;;;;;;;;;;;;;;;;;;5123653;27;20367;-67
2021/12/07 15:05:22;;;;;;;;;;;4.40;99.90;;;;;;5115744;27;19911;-67
2021/12/07 15:07:47;;;;;;;;;;;4.30;99.90;;;;;;5133733;27;19947;-67
2021/12/07 15:10:15;;;;;;;;;;;4.30;99.90;;;;;;5115386;27;19908;-67
2021/12/07 15:12:41;;;;;;;;;;;4.20;99.90;;;;;;5133682;27;19907;-67
2021/12/07 15:15:07;;;;;;;;;;;4.30;99.90;;;;;;5119053;27;19919;-68
2021/12/07 15:17:33;;;;;;;;;;;;;;;;;;5112834;28;19908;-68
2021/12/07 15:20:00;;;;;;;;;;;4.20;99.90;;;;;;5106193;27;19922;-68
2021/12/07 15:22:25;;;;;;;;;;;4.10;99.90;;;;;;5118912;27;20377;-68
2021/12/07 15:24:51;;;;;;;;;;;4.10;99.90;;;;;;5126023;27;19911;-68
2021/12/07 15:27:19;;;;;;;;;;;4.20;99.90;;;;;;5134088;27;20275;-68
2021/12/07 15:29:44;;;;;;;;;;;4.10;99.90;;;;;;5121815;27;19915;-68
2021/12/07 15:32:11;;;;;;;;;;;4.10;99.90;;;;;;5112981;28;20057;-68
2021/12/07 15:34:39;;;;;;;;;;;4.10;99.90;;;;;;5122683;27;19930;-68
2021/12/07 15:37:21;;;;;;;;;;;4.00;99.90;;;;;;5125680;27;19981;-68
2021/12/07 15:39:55;;;;;;;;;;;4.00;99.90;;;;;;5112508;28;20402;-68
2021/12/07 15:42:24;;;;;;;;;;;4.00;99.90;;;;;;5123494;28;19912;-68
2021/12/07 15:44:54;;;;;;;;;;;4.00;99.90;;;;;;5120641;28;19912;-67
2021/12/07 15:47:25;;;;;;;;;;;4.00;99.90;;;;;;5113806;28;19999;-67
2021/12/07 15:49:52;;;;;;;;;;;4.00;99.90;;;;;;5113934;28;19918;-67
2021/12/07 15:52:19;;;;;;;;;;;4.00;99.90;;;;;;5116520;28;19908;-67
2021/12/07 15:54:54;;;;;;;;;;;3.90;99.90;;;;;;5116587;27;20434;-67
2021/12/07 15:57:19;;;;;;;;;;;4.00;99.90;;;;;;5117589;28;20010;-67
2021/12/07 15:59:53;;;;;;;;;;;3.90;99.90;;;;;;5116924;27;19962;-67
2021/12/07 16:02:21;;;;;;;;;;;3.90;99.90;;;;;;5117714;28;19951;-67
2021/12/07 16:04:46;;;;;;;;;;;4.00;99.90;;;;;;5128842;27;19912;-67
2021/12/07 16:07:20;;;;;;;;;;;4.00;99.90;;;;;;5135461;27;20398;-67
2021/12/07 16:09:46;;;;;;;;;;;4.10;99.90;;;;;;5116524;28;19919;-67
2021/12/07 16:12:13;;;;;;;;;;;4.10;99.90;;;;;;5117241;28;20298;-67
2021/12/07 16:14:39;;;;;;;;;;;4.10;99.90;;;;;;5116262;28;19912;-67
2021/12/07 16:17:04;;;;;;;;;;;4.10;99.90;;;;;;5117205;28;19912;-67
2021/12/07 16:19:30;;;;;;;;;;;4.10;99.90;;;;;;5119407;27;19912;-68
2021/12/07 16:21:55;;;;;;;;;;;4.10;99.90;;;;;;5127448;27;19911;-67
2021/12/07 16:24:22;;;;;;;;;;;;;;;;;;5129125;27;19912;-67
2021/12/07 16:26:50;;;;;;;;;;;4.00;99.90;;;;;;5116374;28;20006;-67
2021/12/07 16:29:19;;;;;;;;;;;4.10;99.90;;;;;;5124237;27;20266;-67
2021/12/07 16:31:46;;;;;;;;;;;4.10;99.90;;;;;;5123352;27;19908;-67
2021/12/07 16:34:12;;;;;;;;;;;;;;;;;;5117124;27;20445;-67
2021/12/07 16:36:37;;;;;;;;;;;4.10;99.90;;;;;;5119402;27;19923;-67